sensor_id;sensor_type;location;lat;lon;timestamp;temperature;humidity
13470;DHT22;6807;48.682;9.032;2023-07-16T00:00:36;18.80;1.00
13470;DHT22;6807;48.682;9.032;2023-07-16T00:03:02;18.80;1.00
13470;DHT22;6807;48.682;9.032;2023-07-16T00:05:31;18.70;1.00
13470;DHT22;6807;48.682;9.032;2023-07-16T00:07:58;18.70;1.00
13470;DHT22;6807;48.682;9.032;2023-07-16T00:12:52;18.50;1.00
13470;DHT22;6807;48.682;9.032;2023-07-16T00:15:19;18.60;1.00
13470;DHT22;6807;48.682;9.032;2023-07-16T00:17:46;18.60;1.00
13470;DHT22;6807;48.682;9.032;2023-07-16T00:20:13;18.60;1.00
13470;DHT22;6807;48.682;9.032;2023-07-16T00:22:41;18.40;1.00
13470;DHT22;6807;48.682;9.032;2023-07-16T00:25:08;18.40;1.00
13470;DHT22;6807;48.682;9.032;2023-07-16T00:27:35;18.40;1.00
13470;DHT22;6807;48.682;9.032;2023-07-16T00:30:03;18.30;1.00
13470;DHT22;6807;48.682;9.032;2023-07-16T00:32:30;18.30;1.00
13470;DHT22;6807;48.682;9.032;2023-07-16T00:34:57;18.30;1.00
13470;DHT22;6807;48.682;9.032;2023-07-16T00:37:24;18.30;1.00
13470;DHT22;6807;48.682;9.032;2023-07-16T00:39:52;18.30;1.00
13470;DHT22;6807;48.682;9.032;2023-07-16T00:42:19;18.30;1.00
13470;DHT22;6807;48.682;9.032;2023-07-16T00:44:46;18.30;1.00
13470;DHT22;6807;48.682;9.032;2023-07-16T00:47:13;18.30;1.00
13470;DHT22;6807;48.682;9.032;2023-07-16T00:49:45;18.30;1.00
13470;DHT22;6807;48.682;9.032;2023-07-16T00:52:17;18.20;1.00
13470;DHT22;6807;48.682;9.032;2023-07-16T00:57:14;18.00;99.90
13470;DHT22;6807;48.682;9.032;2023-07-16T00:59:41;17.90;1.60
13470;DHT22;6807;48.682;9.032;2023-07-16T01:02:07;17.90;1.00
13470;DHT22;6807;48.682;9.032;2023-07-16T01:07:04;17.60;99.90
13470;DHT22;6807;48.682;9.032;2023-07-16T01:09:33;18.00;99.90
13470;DHT22;6807;48.682;9.032;2023-07-16T01:12:03;17.70;99.90
13470;DHT22;6807;48.682;9.032;2023-07-16T01:14:33;17.60;1.00
13470;DHT22;6807;48.682;9.032;2023-07-16T01:17:03;17.60;99.90
13470;DHT22;6807;48.682;9.032;2023-07-16T01:19:30;17.60;1.00
13470;DHT22;6807;48.682;9.032;2023-07-16T01:22:16;17.50;99.90
13470;DHT22;6807;48.682;9.032;2023-07-16T01:25:09;17.50;1.00
13470;DHT22;6807;48.682;9.032;2023-07-16T01:27:59;17.40;1.00
13470;DHT22;6807;48.682;9.032;2023-07-16T01:30:35;17.40;1.00
13470;DHT22;6807;48.682;9.032;2023-07-16T01:33:04;17.30;1.00
13470;DHT22;6807;48.682;9.032;2023-07-16T01:35:31;17.30;25.50
13470;DHT22;6807;48.682;9.032;2023-07-16T01:37:59;17.30;1.00
13470;DHT22;6807;48.682;9.032;2023-07-16T01:40:26;17.20;1.00
13470;DHT22;6807;48.682;9.032;2023-07-16T01:42:53;17.20;1.00
13470;DHT22;6807;48.682;9.032;2023-07-16T01:45:20;17.20;99.90
13470;DHT22;6807;48.682;9.032;2023-07-16T01:47:59;17.10;99.90
13470;DHT22;6807;48.682;9.032;2023-07-16T01:50:27;17.10;99.90
13470;DHT22;6807;48.682;9.032;2023-07-16T01:52:54;17.10;99.90
13470;DHT22;6807;48.682;9.032;2023-07-16T01:55:21;17.10;99.90
13470;DHT22;6807;48.682;9.032;2023-07-16T01:57:47;17.10;40.10
13470;DHT22;6807;48.682;9.032;2023-07-16T02:00:14;17.10;29.00
13470;DHT22;6807;48.682;9.032;2023-07-16T02:02:41;16.80;1.00
13470;DHT22;6807;48.682;9.032;2023-07-16T02:05:10;17.10;99.90
13470;DHT22;6807;48.682;9.032;2023-07-16T02:10:05;16.90;99.90
13470;DHT22;6807;48.682;9.032;2023-07-16T02:12:32;17.10;1.00
13470;DHT22;6807;48.682;9.032;2023-07-16T02:14:59;17.10;1.00
13470;DHT22;6807;48.682;9.032;2023-07-16T02:17:26;17.00;1.00
13470;DHT22;6807;48.682;9.032;2023-07-16T02:22:21;17.00;99.90
13470;DHT22;6807;48.682;9.032;2023-07-16T02:24:48;17.00;99.90
13470;DHT22;6807;48.682;9.032;2023-07-16T02:27:15;16.70;1.00
13470;DHT22;6807;48.682;9.032;2023-07-16T02:29:42;16.80;1.00
13470;DHT22;6807;48.682;9.032;2023-07-16T02:32:09;16.90;1.00
13470;DHT22;6807;48.682;9.032;2023-07-16T02:34:36;16.90;1.00
13470;DHT22;6807;48.682;9.032;2023-07-16T02:37:03;16.90;1.00
13470;DHT22;6807;48.682;9.032;2023-07-16T02:39:32;16.80;99.90
13470;DHT22;6807;48.682;9.032;2023-07-16T02:41:59;16.50;99.90
13470;DHT22;6807;48.682;9.032;2023-07-16T02:44:25;16.70;99.90
13470;DHT22;6807;48.682;9.032;2023-07-16T02:46:52;16.70;99.90
13470;DHT22;6807;48.682;9.032;2023-07-16T02:54:14;16.40;99.90
13470;DHT22;6807;48.682;9.032;2023-07-16T02:56:42;16.40;99.90
13470;DHT22;6807;48.682;9.032;2023-07-16T02:59:09;16.20;1.00
13470;DHT22;6807;48.682;9.032;2023-07-16T03:01:36;16.30;99.90
13470;DHT22;6807;48.682;9.032;2023-07-16T03:04:03;16.30;1.00
13470;DHT22;6807;48.682;9.032;2023-07-16T03:06:30;16.30;1.00
13470;DHT22;6807;48.682;9.032;2023-07-16T03:08:57;16.30;1.00
13470;DHT22;6807;48.682;9.032;2023-07-16T03:11:24;16.30;99.90
13470;DHT22;6807;48.682;9.032;2023-07-16T03:13:52;16.40;99.90
13470;DHT22;6807;48.682;9.032;2023-07-16T03:16:19;16.40;99.90
13470;DHT22;6807;48.682;9.032;2023-07-16T03:18:46;16.40;99.90
13470;DHT22;6807;48.682;9.032;2023-07-16T03:21:13;16.40;99.90
13470;DHT22;6807;48.682;9.032;2023-07-16T03:23:40;16.30;99.90
13470;DHT22;6807;48.682;9.032;2023-07-16T03:26:07;16.30;99.90
13470;DHT22;6807;48.682;9.032;2023-07-16T03:28:34;16.20;99.90
13470;DHT22;6807;48.682;9.032;2023-07-16T03:31:02;16.30;1.00
13470;DHT22;6807;48.682;9.032;2023-07-16T03:33:29;16.20;1.00
13470;DHT22;6807;48.682;9.032;2023-07-16T03:35:56;16.20;1.00
13470;DHT22;6807;48.682;9.032;2023-07-16T03:38:23;16.20;1.00
13470;DHT22;6807;48.682;9.032;2023-07-16T03:40:50;16.20;1.00
13470;DHT22;6807;48.682;9.032;2023-07-16T03:43:17;16.20;1.00
13470;DHT22;6807;48.682;9.032;2023-07-16T03:45:45;16.20;1.00
13470;DHT22;6807;48.682;9.032;2023-07-16T03:48:13;16.30;1.00
13470;DHT22;6807;48.682;9.032;2023-07-16T03:50:40;16.20;1.00
13470;DHT22;6807;48.682;9.032;2023-07-16T03:53:07;16.20;99.90
13470;DHT22;6807;48.682;9.032;2023-07-16T03:55:34;16.20;37.90
13470;DHT22;6807;48.682;9.032;2023-07-16T03:58:01;16.30;99.90
13470;DHT22;6807;48.682;9.032;2023-07-16T04:00:28;16.20;1.00
13470;DHT22;6807;48.682;9.032;2023-07-16T04:02:55;16.20;1.00
13470;DHT22;6807;48.682;9.032;2023-07-16T04:05:23;15.90;21.90
13470;DHT22;6807;48.682;9.032;2023-07-16T04:07:50;16.30;99.90
13470;DHT22;6807;48.682;9.032;2023-07-16T04:10:18;16.30;99.90
13470;DHT22;6807;48.682;9.032;2023-07-16T04:12:45;16.30;99.90
13470;DHT22;6807;48.682;9.032;2023-07-16T04:15:12;16.20;99.90
13470;DHT22;6807;48.682;9.032;2023-07-16T04:17:38;16.20;99.90
13470;DHT22;6807;48.682;9.032;2023-07-16T04:20:06;16.20;99.90
13470;DHT22;6807;48.682;9.032;2023-07-16T04:22:35;16.20;99.90
13470;DHT22;6807;48.682;9.032;2023-07-16T04:25:03;16.20;97.90
13470;DHT22;6807;48.682;9.032;2023-07-16T04:27:30;16.20;20.30
13470;DHT22;6807;48.682;9.032;2023-07-16T04:29:57;16.20;99.90
13470;DHT22;6807;48.682;9.032;2023-07-16T04:32:24;16.20;33.70
13470;DHT22;6807;48.682;9.032;2023-07-16T04:34:51;16.30;1.00
13470;DHT22;6807;48.682;9.032;2023-07-16T04:37:17;16.20;1.00
13470;DHT22;6807;48.682;9.032;2023-07-16T04:39:46;16.30;1.00
13470;DHT22;6807;48.682;9.032;2023-07-16T04:49:36;16.30;1.00
13470;DHT22;6807;48.682;9.032;2023-07-16T04:52:04;16.40;1.00
13470;DHT22;6807;48.682;9.032;2023-07-16T04:54:35;16.60;1.00
13470;DHT22;6807;48.682;9.032;2023-07-16T04:57:05;16.40;1.00
13470;DHT22;6807;48.682;9.032;2023-07-16T05:02:01;16.40;1.00
13470;DHT22;6807;48.682;9.032;2023-07-16T05:04:28;16.40;80.60
13470;DHT22;6807;48.682;9.032;2023-07-16T05:09:22;16.20;36.40
13470;DHT22;6807;48.682;9.032;2023-07-16T05:11:49;16.40;99.90
13470;DHT22;6807;48.682;9.032;2023-07-16T05:14:18;16.50;99.90
13470;DHT22;6807;48.682;9.032;2023-07-16T05:16:45;16.60;31.90
13470;DHT22;6807;48.682;9.032;2023-07-16T05:19:11;17.00;99.90
13470;DHT22;6807;48.682;9.032;2023-07-16T05:21:38;16.30;99.90
13470;DHT22;6807;48.682;9.032;2023-07-16T05:26:32;16.90;15.30
13470;DHT22;6807;48.682;9.032;2023-07-16T05:28:59;16.60;1.00
13470;DHT22;6807;48.682;9.032;2023-07-16T05:31:28;16.80;94.10
13470;DHT22;6807;48.682;9.032;2023-07-16T05:36:22;16.80;1.00
13470;DHT22;6807;48.682;9.032;2023-07-16T05:41:16;17.00;1.00
13470;DHT22;6807;48.682;9.032;2023-07-16T05:43:43;17.00;1.00
13470;DHT22;6807;48.682;9.032;2023-07-16T05:46:10;17.10;99.90
13470;DHT22;6807;48.682;9.032;2023-07-16T05:48:38;16.90;99.90
13470;DHT22;6807;48.682;9.032;2023-07-16T05:51:05;17.00;99.90
13470;DHT22;6807;48.682;9.032;2023-07-16T05:53:32;17.00;99.90
13470;DHT22;6807;48.682;9.032;2023-07-16T05:55:59;17.10;99.90
13470;DHT22;6807;48.682;9.032;2023-07-16T05:58:26;17.10;99.90
13470;DHT22;6807;48.682;9.032;2023-07-16T06:00:53;17.00;99.90
13470;DHT22;6807;48.682;9.032;2023-07-16T06:05:49;16.90;99.90
13470;DHT22;6807;48.682;9.032;2023-07-16T06:08:15;17.00;99.90
13470;DHT22;6807;48.682;9.032;2023-07-16T06:10:42;16.80;99.90
13470;DHT22;6807;48.682;9.032;2023-07-16T06:13:09;16.80;99.90
13470;DHT22;6807;48.682;9.032;2023-07-16T06:15:36;16.70;99.90
13470;DHT22;6807;48.682;9.032;2023-07-16T06:18:03;16.80;99.90
13470;DHT22;6807;48.682;9.032;2023-07-16T06:20:30;17.00;99.90
13470;DHT22;6807;48.682;9.032;2023-07-16T06:22:59;16.80;1.00
13470;DHT22;6807;48.682;9.032;2023-07-16T06:25:25;17.00;99.90
13470;DHT22;6807;48.682;9.032;2023-07-16T06:27:52;17.00;99.90
13470;DHT22;6807;48.682;9.032;2023-07-16T06:30:19;17.00;99.90
13470;DHT22;6807;48.682;9.032;2023-07-16T06:35:15;17.50;99.90
13470;DHT22;6807;48.682;9.032;2023-07-16T06:37:42;17.60;19.50
13470;DHT22;6807;48.682;9.032;2023-07-16T06:40:10;17.50;1.00
13470;DHT22;6807;48.682;9.032;2023-07-16T06:42:39;17.70;16.80
13470;DHT22;6807;48.682;9.032;2023-07-16T06:45:08;17.80;1.00
13470;DHT22;6807;48.682;9.032;2023-07-16T06:47:35;17.60;1.00
13470;DHT22;6807;48.682;9.032;2023-07-16T06:50:03;18.10;1.00
13470;DHT22;6807;48.682;9.032;2023-07-16T06:52:30;18.20;1.00
13470;DHT22;6807;48.682;9.032;2023-07-16T06:54:57;18.60;99.90
13470;DHT22;6807;48.682;9.032;2023-07-16T06:57:25;18.60;99.90
13470;DHT22;6807;48.682;9.032;2023-07-16T06:59:52;18.70;99.90
13470;DHT22;6807;48.682;9.032;2023-07-16T07:02:19;19.30;1.00
13470;DHT22;6807;48.682;9.032;2023-07-16T07:04:47;19.00;1.00
13470;DHT22;6807;48.682;9.032;2023-07-16T07:07:14;18.90;1.00
13470;DHT22;6807;48.682;9.032;2023-07-16T07:09:40;19.20;1.00
13470;DHT22;6807;48.682;9.032;2023-07-16T07:12:08;19.20;1.00
13470;DHT22;6807;48.682;9.032;2023-07-16T07:14:36;19.20;1.00
13470;DHT22;6807;48.682;9.032;2023-07-16T07:17:03;19.20;1.00
13470;DHT22;6807;48.682;9.032;2023-07-16T07:19:30;19.10;1.00
13470;DHT22;6807;48.682;9.032;2023-07-16T07:21:57;19.10;1.00
13470;DHT22;6807;48.682;9.032;2023-07-16T07:24:24;19.30;99.90
13470;DHT22;6807;48.682;9.032;2023-07-16T07:26:51;19.70;1.00
13470;DHT22;6807;48.682;9.032;2023-07-16T07:29:18;20.40;99.90
13470;DHT22;6807;48.682;9.032;2023-07-16T07:31:46;21.00;1.00
13470;DHT22;6807;48.682;9.032;2023-07-16T07:34:13;21.30;1.00
13470;DHT22;6807;48.682;9.032;2023-07-16T07:36:40;21.20;1.00
13470;DHT22;6807;48.682;9.032;2023-07-16T07:39:07;20.70;1.00
13470;DHT22;6807;48.682;9.032;2023-07-16T07:41:34;20.30;1.00
13470;DHT22;6807;48.682;9.032;2023-07-16T07:44:01;20.40;1.00
13470;DHT22;6807;48.682;9.032;2023-07-16T07:46:28;20.50;99.90
13470;DHT22;6807;48.682;9.032;2023-07-16T07:48:56;20.40;99.90
13470;DHT22;6807;48.682;9.032;2023-07-16T07:51:23;20.30;99.90
13470;DHT22;6807;48.682;9.032;2023-07-16T07:53:50;20.30;99.90
13470;DHT22;6807;48.682;9.032;2023-07-16T07:56:17;20.10;99.90
13470;DHT22;6807;48.682;9.032;2023-07-16T07:58:44;20.00;1.00
13470;DHT22;6807;48.682;9.032;2023-07-16T08:01:11;20.20;1.00
13470;DHT22;6807;48.682;9.032;2023-07-16T08:03:38;20.10;99.90
13470;DHT22;6807;48.682;9.032;2023-07-16T08:06:06;20.40;1.00
13470;DHT22;6807;48.682;9.032;2023-07-16T08:08:33;20.50;99.90
13470;DHT22;6807;48.682;9.032;2023-07-16T08:11:00;20.60;99.90
13470;DHT22;6807;48.682;9.032;2023-07-16T08:13:27;20.60;99.90
13470;DHT22;6807;48.682;9.032;2023-07-16T08:15:54;20.90;99.90
13470;DHT22;6807;48.682;9.032;2023-07-16T08:18:21;20.80;99.90
13470;DHT22;6807;48.682;9.032;2023-07-16T08:20:48;21.40;99.90
13470;DHT22;6807;48.682;9.032;2023-07-16T08:23:16;22.00;99.90
13470;DHT22;6807;48.682;9.032;2023-07-16T08:25:43;22.10;99.90
13470;DHT22;6807;48.682;9.032;2023-07-16T08:33:05;21.90;86.30
13470;DHT22;6807;48.682;9.032;2023-07-16T08:35:32;22.30;97.20
13470;DHT22;6807;48.682;9.032;2023-07-16T08:38:00;23.20;92.80
13470;DHT22;6807;48.682;9.032;2023-07-16T08:40:28;24.10;40.50
13470;DHT22;6807;48.682;9.032;2023-07-16T08:42:56;23.60;1.00
13470;DHT22;6807;48.682;9.032;2023-07-16T08:45:25;22.80;1.00
13470;DHT22;6807;48.682;9.032;2023-07-16T08:47:54;22.20;1.00
13470;DHT22;6807;48.682;9.032;2023-07-16T08:50:23;21.80;1.00
13470;DHT22;6807;48.682;9.032;2023-07-16T08:55:17;22.10;1.00
13470;DHT22;6807;48.682;9.032;2023-07-16T08:57:47;23.30;1.00
13470;DHT22;6807;48.682;9.032;2023-07-16T09:00:15;24.10;1.00
13470;DHT22;6807;48.682;9.032;2023-07-16T09:02:42;24.30;19.20
13470;DHT22;6807;48.682;9.032;2023-07-16T09:05:09;24.80;1.00
13470;DHT22;6807;48.682;9.032;2023-07-16T09:07:37;24.70;1.00
13470;DHT22;6807;48.682;9.032;2023-07-16T09:10:05;24.90;25.00
13470;DHT22;6807;48.682;9.032;2023-07-16T09:15:01;25.50;77.80
13470;DHT22;6807;48.682;9.032;2023-07-16T09:17:29;25.80;94.00
13470;DHT22;6807;48.682;9.032;2023-07-16T09:19:57;26.30;99.90
13470;DHT22;6807;48.682;9.032;2023-07-16T09:22:24;26.70;99.90
13470;DHT22;6807;48.682;9.032;2023-07-16T09:24:51;26.10;99.90
13470;DHT22;6807;48.682;9.032;2023-07-16T09:27:18;25.60;99.90
13470;DHT22;6807;48.682;9.032;2023-07-16T09:29:46;25.30;99.90
13470;DHT22;6807;48.682;9.032;2023-07-16T09:32:14;24.60;99.90
13470;DHT22;6807;48.682;9.032;2023-07-16T09:34:41;25.10;99.90
13470;DHT22;6807;48.682;9.032;2023-07-16T09:37:08;24.80;99.90
13470;DHT22;6807;48.682;9.032;2023-07-16T09:39:36;25.30;99.90
13470;DHT22;6807;48.682;9.032;2023-07-16T09:42:04;25.40;99.90
13470;DHT22;6807;48.682;9.032;2023-07-16T09:44:32;25.60;99.90
13470;DHT22;6807;48.682;9.032;2023-07-16T09:46:59;25.40;99.90
13470;DHT22;6807;48.682;9.032;2023-07-16T09:49:28;26.60;99.90
13470;DHT22;6807;48.682;9.032;2023-07-16T09:51:57;26.60;99.90
13470;DHT22;6807;48.682;9.032;2023-07-16T09:54:25;26.30;99.90
13470;DHT22;6807;48.682;9.032;2023-07-16T09:56:56;25.10;99.90
13470;DHT22;6807;48.682;9.032;2023-07-16T09:59:28;23.70;99.90
13470;DHT22;6807;48.682;9.032;2023-07-16T10:01:57;23.90;99.90
13470;DHT22;6807;48.682;9.032;2023-07-16T10:04:24;24.80;99.90
13470;DHT22;6807;48.682;9.032;2023-07-16T10:06:54;26.90;99.90
13470;DHT22;6807;48.682;9.032;2023-07-16T10:09:38;25.60;99.90
13470;DHT22;6807;48.682;9.032;2023-07-16T10:12:12;25.40;99.90
13470;DHT22;6807;48.682;9.032;2023-07-16T10:14:40;27.00;99.90
13470;DHT22;6807;48.682;9.032;2023-07-16T10:19:49;26.20;99.90
13470;DHT22;6807;48.682;9.032;2023-07-16T10:22:18;26.50;99.90
13470;DHT22;6807;48.682;9.032;2023-07-16T10:24:51;27.60;99.90
13470;DHT22;6807;48.682;9.032;2023-07-16T10:27:27;27.70;99.90
13470;DHT22;6807;48.682;9.032;2023-07-16T10:29:54;28.00;99.90
13470;DHT22;6807;48.682;9.032;2023-07-16T10:32:22;28.40;99.90
13470;DHT22;6807;48.682;9.032;2023-07-16T10:34:52;27.20;99.90
13470;DHT22;6807;48.682;9.032;2023-07-16T10:37:20;27.30;99.90
13470;DHT22;6807;48.682;9.032;2023-07-16T10:39:48;27.90;99.90
13470;DHT22;6807;48.682;9.032;2023-07-16T10:42:16;29.10;99.90
13470;DHT22;6807;48.682;9.032;2023-07-16T10:44:43;29.80;99.90
13470;DHT22;6807;48.682;9.032;2023-07-16T10:47:18;30.20;99.90
13470;DHT22;6807;48.682;9.032;2023-07-16T10:49:47;30.00;99.90
13470;DHT22;6807;48.682;9.032;2023-07-16T10:54:42;29.10;99.90
13470;DHT22;6807;48.682;9.032;2023-07-16T10:57:11;29.00;99.90
13470;DHT22;6807;48.682;9.032;2023-07-16T10:59:39;29.60;99.90
13470;DHT22;6807;48.682;9.032;2023-07-16T11:02:10;29.50;99.90
13470;DHT22;6807;48.682;9.032;2023-07-16T11:07:06;29.20;99.90
13470;DHT22;6807;48.682;9.032;2023-07-16T11:12:10;30.00;99.90
13470;DHT22;6807;48.682;9.032;2023-07-16T11:14:38;30.70;99.90
13470;DHT22;6807;48.682;9.032;2023-07-16T11:17:05;30.70;93.00
13470;DHT22;6807;48.682;9.032;2023-07-16T11:19:34;30.40;99.90
13470;DHT22;6807;48.682;9.032;2023-07-16T11:22:02;30.10;99.90
13470;DHT22;6807;48.682;9.032;2023-07-16T11:24:36;29.60;99.90
13470;DHT22;6807;48.682;9.032;2023-07-16T11:27:04;29.00;99.90
13470;DHT22;6807;48.682;9.032;2023-07-16T11:29:36;27.90;1.00
13470;DHT22;6807;48.682;9.032;2023-07-16T11:32:05;27.90;1.00
13470;DHT22;6807;48.682;9.032;2023-07-16T11:34:32;27.60;1.00
13470;DHT22;6807;48.682;9.032;2023-07-16T11:37:09;28.40;1.00
13470;DHT22;6807;48.682;9.032;2023-07-16T11:42:04;31.40;1.00
13470;DHT22;6807;48.682;9.032;2023-07-16T11:44:36;31.70;99.90
13470;DHT22;6807;48.682;9.032;2023-07-16T11:47:04;31.10;99.90
13470;DHT22;6807;48.682;9.032;2023-07-16T11:49:31;31.40;99.90
13470;DHT22;6807;48.682;9.032;2023-07-16T11:51:58;31.50;99.90
13470;DHT22;6807;48.682;9.032;2023-07-16T11:54:25;31.90;1.00
13470;DHT22;6807;48.682;9.032;2023-07-16T11:56:52;31.70;99.90
13470;DHT22;6807;48.682;9.032;2023-07-16T11:59:19;30.90;99.90
13470;DHT22;6807;48.682;9.032;2023-07-16T12:01:50;31.10;99.90
13470;DHT22;6807;48.682;9.032;2023-07-16T12:04:18;31.10;99.90
13470;DHT22;6807;48.682;9.032;2023-07-16T12:06:45;30.80;99.90
13470;DHT22;6807;48.682;9.032;2023-07-16T12:09:12;30.70;99.90
13470;DHT22;6807;48.682;9.032;2023-07-16T12:11:39;31.20;99.90
13470;DHT22;6807;48.682;9.032;2023-07-16T12:14:06;31.60;99.90
13470;DHT22;6807;48.682;9.032;2023-07-16T12:16:34;32.60;99.90
13470;DHT22;6807;48.682;9.032;2023-07-16T12:19:02;32.30;99.90
13470;DHT22;6807;48.682;9.032;2023-07-16T12:21:29;31.90;99.90
13470;DHT22;6807;48.682;9.032;2023-07-16T12:23:56;31.70;99.90
13470;DHT22;6807;48.682;9.032;2023-07-16T12:26:23;32.00;99.90
13470;DHT22;6807;48.682;9.032;2023-07-16T12:28:50;32.00;99.90
13470;DHT22;6807;48.682;9.032;2023-07-16T12:31:17;31.50;99.90
13470;DHT22;6807;48.682;9.032;2023-07-16T12:33:45;29.30;99.90
13470;DHT22;6807;48.682;9.032;2023-07-16T12:36:15;27.50;99.90
13470;DHT22;6807;48.682;9.032;2023-07-16T12:38:42;26.30;99.90
13470;DHT22;6807;48.682;9.032;2023-07-16T12:41:09;25.80;99.90
13470;DHT22;6807;48.682;9.032;2023-07-16T12:46:05;25.60;99.90
13470;DHT22;6807;48.682;9.032;2023-07-16T12:51:52;25.10;99.90
13470;DHT22;6807;48.682;9.032;2023-07-16T12:54:19;25.00;99.90
13470;DHT22;6807;48.682;9.032;2023-07-16T12:56:46;26.30;1.00
13470;DHT22;6807;48.682;9.032;2023-07-16T12:59:13;27.70;99.90
13470;DHT22;6807;48.682;9.032;2023-07-16T13:01:40;27.70;99.90
13470;DHT22;6807;48.682;9.032;2023-07-16T13:04:07;27.80;99.90
13470;DHT22;6807;48.682;9.032;2023-07-16T13:06:34;27.60;99.90
13470;DHT22;6807;48.682;9.032;2023-07-16T13:09:03;27.70;99.90
13470;DHT22;6807;48.682;9.032;2023-07-16T13:11:30;27.10;99.90
13470;DHT22;6807;48.682;9.032;2023-07-16T13:13:57;27.90;99.90
13470;DHT22;6807;48.682;9.032;2023-07-16T13:16:25;29.60;99.90
13470;DHT22;6807;48.682;9.032;2023-07-16T13:18:52;30.80;99.90
13470;DHT22;6807;48.682;9.032;2023-07-16T13:21:19;31.30;99.90
13470;DHT22;6807;48.682;9.032;2023-07-16T13:23:48;30.40;99.90
13470;DHT22;6807;48.682;9.032;2023-07-16T13:26:16;29.80;99.90
13470;DHT22;6807;48.682;9.032;2023-07-16T13:28:43;28.80;99.90
13470;DHT22;6807;48.682;9.032;2023-07-16T13:31:10;28.30;99.90
13470;DHT22;6807;48.682;9.032;2023-07-16T13:33:37;28.30;99.90
13470;DHT22;6807;48.682;9.032;2023-07-16T13:36:05;27.60;99.90
13470;DHT22;6807;48.682;9.032;2023-07-16T13:38:32;27.60;99.90
13470;DHT22;6807;48.682;9.032;2023-07-16T13:43:28;29.90;99.90
13470;DHT22;6807;48.682;9.032;2023-07-16T13:45:55;30.80;99.90
13470;DHT22;6807;48.682;9.032;2023-07-16T13:48:21;31.50;99.90
13470;DHT22;6807;48.682;9.032;2023-07-16T13:50:48;31.70;99.90
13470;DHT22;6807;48.682;9.032;2023-07-16T13:53:15;31.00;99.90
13470;DHT22;6807;48.682;9.032;2023-07-16T13:55:42;29.60;99.90
13470;DHT22;6807;48.682;9.032;2023-07-16T13:58:10;29.20;99.90
13470;DHT22;6807;48.682;9.032;2023-07-16T14:00:38;29.00;99.90
13470;DHT22;6807;48.682;9.032;2023-07-16T14:03:05;30.30;99.90
13470;DHT22;6807;48.682;9.032;2023-07-16T14:05:32;30.70;99.90
13470;DHT22;6807;48.682;9.032;2023-07-16T14:08:04;30.10;99.90
13470;DHT22;6807;48.682;9.032;2023-07-16T14:10:31;30.20;99.90
13470;DHT22;6807;48.682;9.032;2023-07-16T14:12:58;29.30;99.90
13470;DHT22;6807;48.682;9.032;2023-07-16T14:15:25;29.50;99.90
13470;DHT22;6807;48.682;9.032;2023-07-16T14:17:53;30.20;99.90
13470;DHT22;6807;48.682;9.032;2023-07-16T14:20:20;30.70;99.90
13470;DHT22;6807;48.682;9.032;2023-07-16T14:22:47;30.80;99.90
13470;DHT22;6807;48.682;9.032;2023-07-16T14:25:14;30.40;99.90
13470;DHT22;6807;48.682;9.032;2023-07-16T14:27:42;30.70;99.90
13470;DHT22;6807;48.682;9.032;2023-07-16T14:30:10;30.70;99.90
13470;DHT22;6807;48.682;9.032;2023-07-16T14:32:37;29.80;99.90
13470;DHT22;6807;48.682;9.032;2023-07-16T14:35:06;28.70;99.90
13470;DHT22;6807;48.682;9.032;2023-07-16T14:37:33;27.80;99.90
13470;DHT22;6807;48.682;9.032;2023-07-16T14:40:00;26.90;99.90
13470;DHT22;6807;48.682;9.032;2023-07-16T14:42:28;26.50;99.90
13470;DHT22;6807;48.682;9.032;2023-07-16T14:44:55;26.00;99.90
13470;DHT22;6807;48.682;9.032;2023-07-16T14:47:22;25.80;99.90
13470;DHT22;6807;48.682;9.032;2023-07-16T14:49:49;25.60;99.90
13470;DHT22;6807;48.682;9.032;2023-07-16T14:52:18;25.50;99.90
13470;DHT22;6807;48.682;9.032;2023-07-16T14:54:45;25.50;99.90
13470;DHT22;6807;48.682;9.032;2023-07-16T14:57:12;25.50;99.90
13470;DHT22;6807;48.682;9.032;2023-07-16T14:59:39;26.20;99.90
13470;DHT22;6807;48.682;9.032;2023-07-16T15:02:06;26.20;99.90
13470;DHT22;6807;48.682;9.032;2023-07-16T15:04:33;26.10;99.90
13470;DHT22;6807;48.682;9.032;2023-07-16T15:07:00;26.10;99.90
13470;DHT22;6807;48.682;9.032;2023-07-16T15:09:29;26.30;99.90
13470;DHT22;6807;48.682;9.032;2023-07-16T15:11:55;26.40;99.90
13470;DHT22;6807;48.682;9.032;2023-07-16T15:19:17;27.30;99.90
13470;DHT22;6807;48.682;9.032;2023-07-16T15:21:45;27.50;99.90
13470;DHT22;6807;48.682;9.032;2023-07-16T15:24:12;28.10;99.90
13470;DHT22;6807;48.682;9.032;2023-07-16T15:26:40;28.50;99.90
13470;DHT22;6807;48.682;9.032;2023-07-16T15:29:07;28.40;99.90
13470;DHT22;6807;48.682;9.032;2023-07-16T15:31:35;28.20;99.90
13470;DHT22;6807;48.682;9.032;2023-07-16T15:34:01;28.30;99.90
13470;DHT22;6807;48.682;9.032;2023-07-16T15:36:28;28.30;99.90
13470;DHT22;6807;48.682;9.032;2023-07-16T15:38:55;29.00;99.90
13470;DHT22;6807;48.682;9.032;2023-07-16T15:41:22;28.40;99.90
13470;DHT22;6807;48.682;9.032;2023-07-16T15:43:54;27.80;99.90
13470;DHT22;6807;48.682;9.032;2023-07-16T15:46:21;27.40;99.90
13470;DHT22;6807;48.682;9.032;2023-07-16T15:48:48;27.40;99.90
13470;DHT22;6807;48.682;9.032;2023-07-16T15:51:15;27.80;99.90
13470;DHT22;6807;48.682;9.032;2023-07-16T15:53:42;27.70;99.90
13470;DHT22;6807;48.682;9.032;2023-07-16T15:56:09;27.60;99.90
13470;DHT22;6807;48.682;9.032;2023-07-16T15:58:36;27.50;99.90
13470;DHT22;6807;48.682;9.032;2023-07-16T16:01:05;23.90;99.90
13470;DHT22;6807;48.682;9.032;2023-07-16T16:03:33;26.50;99.90
13470;DHT22;6807;48.682;9.032;2023-07-16T16:06:00;26.20;99.90
13470;DHT22;6807;48.682;9.032;2023-07-16T16:08:27;25.80;99.90
13470;DHT22;6807;48.682;9.032;2023-07-16T16:10:54;25.60;99.90
13470;DHT22;6807;48.682;9.032;2023-07-16T16:13:23;25.50;99.90
13470;DHT22;6807;48.682;9.032;2023-07-16T16:15:51;25.20;99.90
13470;DHT22;6807;48.682;9.032;2023-07-16T16:18:21;25.10;99.90
13470;DHT22;6807;48.682;9.032;2023-07-16T16:20:48;25.20;99.90
13470;DHT22;6807;48.682;9.032;2023-07-16T16:23:16;25.30;99.90
13470;DHT22;6807;48.682;9.032;2023-07-16T16:25:52;25.30;99.90
13470;DHT22;6807;48.682;9.032;2023-07-16T16:28:20;25.30;99.90
13470;DHT22;6807;48.682;9.032;2023-07-16T16:30:48;25.20;99.90
13470;DHT22;6807;48.682;9.032;2023-07-16T16:33:15;25.10;99.90
13470;DHT22;6807;48.682;9.032;2023-07-16T16:35:44;25.00;99.90
13470;DHT22;6807;48.682;9.032;2023-07-16T16:38:11;25.10;99.90
13470;DHT22;6807;48.682;9.032;2023-07-16T16:40:38;24.90;99.90
13470;DHT22;6807;48.682;9.032;2023-07-16T16:43:06;24.90;99.90
13470;DHT22;6807;48.682;9.032;2023-07-16T16:45:33;24.80;99.90
13470;DHT22;6807;48.682;9.032;2023-07-16T16:48:07;24.60;99.90
13470;DHT22;6807;48.682;9.032;2023-07-16T16:50:34;24.20;99.90
13470;DHT22;6807;48.682;9.032;2023-07-16T16:53:03;24.20;99.90
13470;DHT22;6807;48.682;9.032;2023-07-16T16:55:30;24.20;99.90
13470;DHT22;6807;48.682;9.032;2023-07-16T16:57:57;24.10;99.90
13470;DHT22;6807;48.682;9.032;2023-07-16T17:02:51;23.70;99.90
13470;DHT22;6807;48.682;9.032;2023-07-16T17:05:18;23.60;99.90
13470;DHT22;6807;48.682;9.032;2023-07-16T17:07:45;23.60;99.90
13470;DHT22;6807;48.682;9.032;2023-07-16T17:10:14;23.50;99.90
13470;DHT22;6807;48.682;9.032;2023-07-16T17:12:42;23.50;99.90